sensor_id;sensor_type;location;lat;lon;timestamp;P1;durP1;ratioP1;P2;durP2;ratioP2
13432;SDS011;6789;47.678;9.158;2023-03-23T00:02:14;3.27;;;2.53;;
13432;SDS011;6789;47.678;9.158;2023-03-23T00:07:31;6.30;;;2.40;;
13432;SDS011;6789;47.678;9.158;2023-03-23T00:12:25;3.43;;;2.37;;
13432;SDS011;6789;47.678;9.158;2023-03-23T00:17:28;3.50;;;2.50;;
13432;SDS011;6789;47.678;9.158;2023-03-23T00:22:23;3.33;;;2.40;;
13432;SDS011;6789;47.678;9.158;2023-03-23T00:27:14;4.93;;;2.63;;
13432;SDS011;6789;47.678;9.158;2023-03-23T00:32:06;6.30;;;2.80;;
13432;SDS011;6789;47.678;9.158;2023-03-23T00:37:02;3.40;;;2.70;;
13432;SDS011;6789;47.678;9.158;2023-03-23T00:41:53;4.17;;;2.93;;
13432;SDS011;6789;47.678;9.158;2023-03-23T00:46:50;5.93;;;3.50;;
13432;SDS011;6789;47.678;9.158;2023-03-23T00:51:41;6.03;;;3.60;;
13432;SDS011;6789;47.678;9.158;2023-03-23T00:56:33;4.33;;;3.43;;
13432;SDS011;6789;47.678;9.158;2023-03-23T01:01:24;4.03;;;3.13;;
13432;SDS011;6789;47.678;9.158;2023-03-23T01:06:15;4.97;;;3.00;;
13432;SDS011;6789;47.678;9.158;2023-03-23T01:11:06;7.03;;;3.93;;
13432;SDS011;6789;47.678;9.158;2023-03-23T01:15:57;5.73;;;3.33;;
13432;SDS011;6789;47.678;9.158;2023-03-23T01:20:48;4.87;;;3.00;;
13432;SDS011;6789;47.678;9.158;2023-03-23T01:25:38;4.17;;;2.93;;
13432;SDS011;6789;47.678;9.158;2023-03-23T01:30:29;6.07;;;2.87;;
13432;SDS011;6789;47.678;9.158;2023-03-23T01:35:20;6.57;;;3.20;;
13432;SDS011;6789;47.678;9.158;2023-03-23T01:40:11;8.37;;;3.33;;
13432;SDS011;6789;47.678;9.158;2023-03-23T01:50:14;5.63;;;4.10;;
13432;SDS011;6789;47.678;9.158;2023-03-23T01:55:05;6.37;;;3.83;;
13432;SDS011;6789;47.678;9.158;2023-03-23T01:59:57;5.43;;;3.70;;
13432;SDS011;6789;47.678;9.158;2023-03-23T02:05:01;5.97;;;4.13;;
13432;SDS011;6789;47.678;9.158;2023-03-23T02:10:00;6.17;;;3.53;;
13432;SDS011;6789;47.678;9.158;2023-03-23T02:14:51;9.27;;;3.83;;
13432;SDS011;6789;47.678;9.158;2023-03-23T02:19:59;9.30;;;3.67;;
13432;SDS011;6789;47.678;9.158;2023-03-23T02:25:17;5.93;;;4.07;;
13432;SDS011;6789;47.678;9.158;2023-03-23T02:30:37;5.80;;;4.00;;
13432;SDS011;6789;47.678;9.158;2023-03-23T02:35:54;6.87;;;3.93;;
13432;SDS011;6789;47.678;9.158;2023-03-23T02:40:52;6.63;;;4.47;;
13432;SDS011;6789;47.678;9.158;2023-03-23T02:45:49;7.57;;;4.40;;
13432;SDS011;6789;47.678;9.158;2023-03-23T02:50:45;5.80;;;4.10;;
13432;SDS011;6789;47.678;9.158;2023-03-23T02:55:43;6.53;;;4.23;;
13432;SDS011;6789;47.678;9.158;2023-03-23T03:00:36;7.07;;;3.27;;
13432;SDS011;6789;47.678;9.158;2023-03-23T03:16:03;4.73;;;3.80;;
13432;SDS011;6789;47.678;9.158;2023-03-23T03:21:18;6.33;;;3.90;;
13432;SDS011;6789;47.678;9.158;2023-03-23T03:26:17;6.90;;;4.13;;
13432;SDS011;6789;47.678;9.158;2023-03-23T03:31:10;7.67;;;4.27;;
13432;SDS011;6789;47.678;9.158;2023-03-23T03:36:02;6.40;;;4.17;;
13432;SDS011;6789;47.678;9.158;2023-03-23T03:40:58;6.93;;;4.70;;
13432;SDS011;6789;47.678;9.158;2023-03-23T03:45:49;10.03;;;4.67;;
13432;SDS011;6789;47.678;9.158;2023-03-23T03:50:40;8.30;;;5.23;;
13432;SDS011;6789;47.678;9.158;2023-03-23T03:55:32;8.33;;;5.10;;
13432;SDS011;6789;47.678;9.158;2023-03-23T04:00:25;6.50;;;5.30;;
13432;SDS011;6789;47.678;9.158;2023-03-23T04:05:16;8.83;;;5.47;;
13432;SDS011;6789;47.678;9.158;2023-03-23T04:10:09;8.10;;;5.20;;
13432;SDS011;6789;47.678;9.158;2023-03-23T04:15:03;13.10;;;5.93;;
13432;SDS011;6789;47.678;9.158;2023-03-23T04:19:55;7.73;;;6.00;;
13432;SDS011;6789;47.678;9.158;2023-03-23T04:24:47;7.70;;;5.60;;
13432;SDS011;6789;47.678;9.158;2023-03-23T04:29:38;8.10;;;6.13;;
13432;SDS011;6789;47.678;9.158;2023-03-23T04:34:29;7.67;;;5.00;;
13432;SDS011;6789;47.678;9.158;2023-03-23T04:39:22;9.13;;;5.50;;
13432;SDS011;6789;47.678;9.158;2023-03-23T04:44:14;10.97;;;5.37;;
13432;SDS011;6789;47.678;9.158;2023-03-23T04:49:07;7.13;;;4.73;;
13432;SDS011;6789;47.678;9.158;2023-03-23T04:53:59;6.10;;;4.37;;
13432;SDS011;6789;47.678;9.158;2023-03-23T04:58:52;5.27;;;4.40;;
13432;SDS011;6789;47.678;9.158;2023-03-23T05:03:44;6.57;;;4.47;;
13432;SDS011;6789;47.678;9.158;2023-03-23T05:08:35;7.50;;;4.83;;
13432;SDS011;6789;47.678;9.158;2023-03-23T05:13:29;7.57;;;4.97;;
13432;SDS011;6789;47.678;9.158;2023-03-23T05:18:19;11.53;;;5.80;;
13432;SDS011;6789;47.678;9.158;2023-03-23T05:23:10;12.50;;;5.50;;
13432;SDS011;6789;47.678;9.158;2023-03-23T05:28:02;7.80;;;5.17;;
13432;SDS011;6789;47.678;9.158;2023-03-23T05:32:53;7.60;;;4.70;;
13432;SDS011;6789;47.678;9.158;2023-03-23T05:37:44;6.57;;;4.90;;
13432;SDS011;6789;47.678;9.158;2023-03-23T05:42:35;8.57;;;5.30;;
13432;SDS011;6789;47.678;9.158;2023-03-23T05:47:26;7.97;;;4.50;;
13432;SDS011;6789;47.678;9.158;2023-03-23T05:52:18;8.20;;;4.73;;
13432;SDS011;6789;47.678;9.158;2023-03-23T05:57:10;10.83;;;5.40;;
13432;SDS011;6789;47.678;9.158;2023-03-23T06:02:01;8.50;;;5.13;;
13432;SDS011;6789;47.678;9.158;2023-03-23T06:06:52;10.07;;;5.63;;
13432;SDS011;6789;47.678;9.158;2023-03-23T06:11:43;13.00;;;5.63;;
13432;SDS011;6789;47.678;9.158;2023-03-23T06:16:34;10.03;;;5.83;;
13432;SDS011;6789;47.678;9.158;2023-03-23T06:21:25;15.13;;;6.17;;
13432;SDS011;6789;47.678;9.158;2023-03-23T06:26:16;17.40;;;6.70;;
13432;SDS011;6789;47.678;9.158;2023-03-23T06:31:09;9.00;;;5.53;;
13432;SDS011;6789;47.678;9.158;2023-03-23T06:36:01;10.13;;;6.00;;
13432;SDS011;6789;47.678;9.158;2023-03-23T06:40:53;10.97;;;6.00;;
13432;SDS011;6789;47.678;9.158;2023-03-23T06:45:45;9.60;;;6.13;;
13432;SDS011;6789;47.678;9.158;2023-03-23T06:50:36;7.20;;;5.40;;
13432;SDS011;6789;47.678;9.158;2023-03-23T06:55:30;8.33;;;5.87;;
13432;SDS011;6789;47.678;9.158;2023-03-23T07:00:21;7.70;;;5.03;;
13432;SDS011;6789;47.678;9.158;2023-03-23T07:05:12;8.93;;;4.57;;
13432;SDS011;6789;47.678;9.158;2023-03-23T07:10:04;6.40;;;4.30;;
13432;SDS011;6789;47.678;9.158;2023-03-23T07:14:59;35.57;;;7.60;;
13432;SDS011;6789;47.678;9.158;2023-03-23T07:19:49;15.93;;;4.93;;
13432;SDS011;6789;47.678;9.158;2023-03-23T07:24:40;7.57;;;4.22;;
13432;SDS011;6789;47.678;9.158;2023-03-23T07:29:31;5.20;;;4.00;;
13432;SDS011;6789;47.678;9.158;2023-03-23T07:34:25;5.57;;;3.60;;
13432;SDS011;6789;47.678;9.158;2023-03-23T07:39:15;3.77;;;3.23;;
13432;SDS011;6789;47.678;9.158;2023-03-23T07:44:10;3.30;;;2.92;;
13432;SDS011;6789;47.678;9.158;2023-03-23T07:49:01;3.15;;;2.33;;
13432;SDS011;6789;47.678;9.158;2023-03-23T07:53:55;3.63;;;2.40;;
13432;SDS011;6789;47.678;9.158;2023-03-23T07:58:46;5.07;;;2.47;;
13432;SDS011;6789;47.678;9.158;2023-03-23T08:03:38;9.57;;;2.67;;
13432;SDS011;6789;47.678;9.158;2023-03-23T08:08:29;4.30;;;2.80;;
13432;SDS011;6789;47.678;9.158;2023-03-23T08:13:20;2.70;;;2.17;;
13432;SDS011;6789;47.678;9.158;2023-03-23T08:18:10;3.03;;;2.40;;
13432;SDS011;6789;47.678;9.158;2023-03-23T08:23:01;3.63;;;2.17;;
13432;SDS011;6789;47.678;9.158;2023-03-23T08:27:53;3.67;;;2.05;;
13432;SDS011;6789;47.678;9.158;2023-03-23T08:32:45;8.07;;;4.85;;
13432;SDS011;6789;47.678;9.158;2023-03-23T08:37:37;3.60;;;2.05;;
13432;SDS011;6789;47.678;9.158;2023-03-23T08:42:28;9.15;;;2.60;;
13432;SDS011;6789;47.678;9.158;2023-03-23T08:47:19;7.30;;;2.40;;
13432;SDS011;6789;47.678;9.158;2023-03-23T08:52:10;3.50;;;1.98;;
13432;SDS011;6789;47.678;9.158;2023-03-23T08:57:01;6.30;;;2.28;;
13432;SDS011;6789;47.678;9.158;2023-03-23T09:01:53;2.05;;;1.63;;
13432;SDS011;6789;47.678;9.158;2023-03-23T09:06:44;3.13;;;2.10;;
13432;SDS011;6789;47.678;9.158;2023-03-23T09:11:35;2.78;;;1.90;;
13432;SDS011;6789;47.678;9.158;2023-03-23T09:16:27;3.88;;;1.95;;
13432;SDS011;6789;47.678;9.158;2023-03-23T09:21:18;2.45;;;1.70;;
13432;SDS011;6789;47.678;9.158;2023-03-23T09:26:09;1.90;;;1.70;;
13432;SDS011;6789;47.678;9.158;2023-03-23T09:31:00;3.80;;;1.65;;
13432;SDS011;6789;47.678;9.158;2023-03-23T09:35:51;6.20;;;1.80;;
13432;SDS011;6789;47.678;9.158;2023-03-23T09:40:46;3.92;;;1.70;;
13432;SDS011;6789;47.678;9.158;2023-03-23T09:46:01;2.80;;;1.48;;
13432;SDS011;6789;47.678;9.158;2023-03-23T09:56:35;1.90;;;1.30;;
13432;SDS011;6789;47.678;9.158;2023-03-23T10:01:29;3.70;;;1.73;;
13432;SDS011;6789;47.678;9.158;2023-03-23T10:06:27;2.20;;;1.50;;
13432;SDS011;6789;47.678;9.158;2023-03-23T10:22:09;3.67;;;1.85;;
13432;SDS011;6789;47.678;9.158;2023-03-23T10:27:08;2.17;;;1.52;;
13432;SDS011;6789;47.678;9.158;2023-03-23T10:32:17;2.75;;;1.70;;
13432;SDS011;6789;47.678;9.158;2023-03-23T10:37:32;2.47;;;1.33;;
13432;SDS011;6789;47.678;9.158;2023-03-23T10:42:32;4.90;;;1.83;;
13432;SDS011;6789;47.678;9.158;2023-03-23T10:47:26;2.88;;;1.67;;
13432;SDS011;6789;47.678;9.158;2023-03-23T10:57:26;2.28;;;1.27;;
13432;SDS011;6789;47.678;9.158;2023-03-23T11:02:23;4.63;;;1.98;;
13432;SDS011;6789;47.678;9.158;2023-03-23T11:07:18;5.07;;;1.58;;
13432;SDS011;6789;47.678;9.158;2023-03-23T11:12:19;2.05;;;1.50;;
13432;SDS011;6789;47.678;9.158;2023-03-23T11:17:24;2.15;;;1.40;;
13432;SDS011;6789;47.678;9.158;2023-03-23T11:22:24;1.98;;;1.50;;
13432;SDS011;6789;47.678;9.158;2023-03-23T11:27:23;2.55;;;1.42;;
13432;SDS011;6789;47.678;9.158;2023-03-23T11:32:14;2.15;;;1.40;;
13432;SDS011;6789;47.678;9.158;2023-03-23T11:37:17;2.40;;;1.60;;
13432;SDS011;6789;47.678;9.158;2023-03-23T11:58:30;1.42;;;1.10;;
13432;SDS011;6789;47.678;9.158;2023-03-23T12:03:25;2.65;;;1.25;;
13432;SDS011;6789;47.678;9.158;2023-03-23T12:09:43;1.83;;;1.38;;
13432;SDS011;6789;47.678;9.158;2023-03-23T12:14:53;1.63;;;1.20;;
13432;SDS011;6789;47.678;9.158;2023-03-23T12:30:28;4.07;;;1.65;;
13432;SDS011;6789;47.678;9.158;2023-03-23T12:35:50;4.97;;;1.30;;
13432;SDS011;6789;47.678;9.158;2023-03-23T12:41:20;2.30;;;1.45;;
13432;SDS011;6789;47.678;9.158;2023-03-23T12:51:36;2.95;;;1.48;;
13432;SDS011;6789;47.678;9.158;2023-03-23T12:57:02;1.88;;;1.13;;
13432;SDS011;6789;47.678;9.158;2023-03-23T13:02:09;1.48;;;1.20;;
13432;SDS011;6789;47.678;9.158;2023-03-23T13:07:42;1.83;;;1.50;;
13432;SDS011;6789;47.678;9.158;2023-03-23T13:12:41;2.58;;;1.50;;
13432;SDS011;6789;47.678;9.158;2023-03-23T13:17:43;4.28;;;1.73;;
13432;SDS011;6789;47.678;9.158;2023-03-23T13:23:15;3.53;;;1.55;;
13432;SDS011;6789;47.678;9.158;2023-03-23T13:28:20;2.47;;;1.65;;
13432;SDS011;6789;47.678;9.158;2023-03-23T13:33:20;4.20;;;1.80;;
13432;SDS011;6789;47.678;9.158;2023-03-23T13:38:20;3.17;;;1.50;;
13432;SDS011;6789;47.678;9.158;2023-03-23T13:43:24;2.55;;;1.77;;
13432;SDS011;6789;47.678;9.158;2023-03-23T13:48:21;2.65;;;1.80;;
13432;SDS011;6789;47.678;9.158;2023-03-23T13:53:23;3.78;;;2.15;;
13432;SDS011;6789;47.678;9.158;2023-03-23T13:58:25;3.17;;;1.60;;
13432;SDS011;6789;47.678;9.158;2023-03-23T14:03:19;1.65;;;1.40;;
13432;SDS011;6789;47.678;9.158;2023-03-23T14:18:18;6.43;;;1.73;;
13432;SDS011;6789;47.678;9.158;2023-03-23T14:23:17;3.00;;;1.48;;
13432;SDS011;6789;47.678;9.158;2023-03-23T14:28:16;3.50;;;1.50;;
13432;SDS011;6789;47.678;9.158;2023-03-23T14:33:11;1.73;;;1.35;;
13432;SDS011;6789;47.678;9.158;2023-03-23T14:38:03;2.78;;;1.60;;
13432;SDS011;6789;47.678;9.158;2023-03-23T14:43:20;3.33;;;1.88;;
13432;SDS011;6789;47.678;9.158;2023-03-23T14:48:13;2.42;;;1.42;;
13432;SDS011;6789;47.678;9.158;2023-03-23T14:53:15;1.80;;;1.50;;
13432;SDS011;6789;47.678;9.158;2023-03-23T14:58:14;2.88;;;1.75;;
13432;SDS011;6789;47.678;9.158;2023-03-23T15:03:10;4.22;;;1.50;;
13432;SDS011;6789;47.678;9.158;2023-03-23T15:08:06;2.20;;;1.60;;
13432;SDS011;6789;47.678;9.158;2023-03-23T15:13:23;3.03;;;1.33;;
13432;SDS011;6789;47.678;9.158;2023-03-23T15:18:28;3.40;;;1.60;;
13432;SDS011;6789;47.678;9.158;2023-03-23T15:23:26;4.03;;;1.55;;
13432;SDS011;6789;47.678;9.158;2023-03-23T15:28:20;2.30;;;1.77;;
13432;SDS011;6789;47.678;9.158;2023-03-23T15:33:22;2.47;;;1.92;;
13432;SDS011;6789;47.678;9.158;2023-03-23T15:38:29;2.78;;;1.77;;
13432;SDS011;6789;47.678;9.158;2023-03-23T15:43:48;2.47;;;1.73;;
13432;SDS011;6789;47.678;9.158;2023-03-23T15:48:46;6.60;;;1.88;;
13432;SDS011;6789;47.678;9.158;2023-03-23T15:53:37;2.05;;;1.55;;
13432;SDS011;6789;47.678;9.158;2023-03-23T15:58:29;2.63;;;1.60;;
13432;SDS011;6789;47.678;9.158;2023-03-23T16:03:24;2.35;;;1.73;;
13432;SDS011;6789;47.678;9.158;2023-03-23T16:08:20;5.35;;;2.17;;
13432;SDS011;6789;47.678;9.158;2023-03-23T16:13:12;3.53;;;2.00;;
13432;SDS011;6789;47.678;9.158;2023-03-23T16:18:04;1.83;;;1.30;;
13432;SDS011;6789;47.678;9.158;2023-03-23T16:22:55;2.70;;;1.58;;
13432;SDS011;6789;47.678;9.158;2023-03-23T16:27:47;2.35;;;1.60;;
13432;SDS011;6789;47.678;9.158;2023-03-23T16:32:43;2.33;;;1.60;;
13432;SDS011;6789;47.678;9.158;2023-03-23T16:37:37;2.92;;;1.65;;
13432;SDS011;6789;47.678;9.158;2023-03-23T16:42:29;3.15;;;1.73;;
13432;SDS011;6789;47.678;9.158;2023-03-23T16:47:23;3.55;;;1.55;;
13432;SDS011;6789;47.678;9.158;2023-03-23T16:52:15;2.58;;;1.70;;
13432;SDS011;6789;47.678;9.158;2023-03-23T16:57:08;3.53;;;1.52;;
13432;SDS011;6789;47.678;9.158;2023-03-23T17:02:01;3.58;;;1.60;;
13432;SDS011;6789;47.678;9.158;2023-03-23T17:06:54;2.83;;;1.63;;
13432;SDS011;6789;47.678;9.158;2023-03-23T17:11:46;1.98;;;1.73;;
13432;SDS011;6789;47.678;9.158;2023-03-23T17:16:38;3.92;;;1.80;;
13432;SDS011;6789;47.678;9.158;2023-03-23T17:21:30;2.72;;;1.50;;
13432;SDS011;6789;47.678;9.158;2023-03-23T17:26:24;3.03;;;1.67;;
13432;SDS011;6789;47.678;9.158;2023-03-23T17:31:16;3.05;;;1.77;;
13432;SDS011;6789;47.678;9.158;2023-03-23T17:36:07;6.00;;;1.98;;
13432;SDS011;6789;47.678;9.158;2023-03-23T17:41:00;3.03;;;1.65;;
13432;SDS011;6789;47.678;9.158;2023-03-23T17:45:54;3.25;;;1.70;;
13432;SDS011;6789;47.678;9.158;2023-03-23T17:50:46;2.97;;;2.00;;
13432;SDS011;6789;47.678;9.158;2023-03-23T17:55:39;5.25;;;1.63;;
13432;SDS011;6789;47.678;9.158;2023-03-23T18:00:33;4.32;;;2.00;;
13432;SDS011;6789;47.678;9.158;2023-03-23T18:05:25;3.53;;;2.10;;
13432;SDS011;6789;47.678;9.158;2023-03-23T18:10:18;3.70;;;2.10;;
13432;SDS011;6789;47.678;9.158;2023-03-23T18:15:13;5.22;;;2.50;;
13432;SDS011;6789;47.678;9.158;2023-03-23T18:20:05;4.18;;;2.58;;
13432;SDS011;6789;47.678;9.158;2023-03-23T18:24:58;5.28;;;2.60;;
13432;SDS011;6789;47.678;9.158;2023-03-23T18:29:52;5.25;;;2.38;;
13432;SDS011;6789;47.678;9.158;2023-03-23T18:34:44;2.92;;;2.30;;
13432;SDS011;6789;47.678;9.158;2023-03-23T18:39:36;3.65;;;2.00;;
13432;SDS011;6789;47.678;9.158;2023-03-23T18:44:29;3.72;;;2.30;;
13432;SDS011;6789;47.678;9.158;2023-03-23T18:49:22;4.63;;;2.30;;
13432;SDS011;6789;47.678;9.158;2023-03-23T18:54:13;4.15;;;2.25;;
13432;SDS011;6789;47.678;9.158;2023-03-23T18:59:07;5.68;;;2.17;;
13432;SDS011;6789;47.678;9.158;2023-03-23T19:03:59;4.35;;;2.47;;
13432;SDS011;6789;47.678;9.158;2023-03-23T19:08:57;3.08;;;2.55;;
13432;SDS011;6789;47.678;9.158;2023-03-23T19:13:49;4.75;;;2.40;;
13432;SDS011;6789;47.678;9.158;2023-03-23T19:18:53;4.22;;;2.60;;
13432;SDS011;6789;47.678;9.158;2023-03-23T19:23:45;6.35;;;2.58;;
13432;SDS011;6789;47.678;9.158;2023-03-23T19:28:37;3.67;;;2.75;;
13432;SDS011;6789;47.678;9.158;2023-03-23T19:33:32;4.35;;;2.85;;
13432;SDS011;6789;47.678;9.158;2023-03-23T19:38:24;3.08;;;2.53;;
13432;SDS011;6789;47.678;9.158;2023-03-23T19:43:16;4.82;;;3.00;;
13432;SDS011;6789;47.678;9.158;2023-03-23T19:48:08;3.78;;;2.88;;
13432;SDS011;6789;47.678;9.158;2023-03-23T19:53:00;4.03;;;2.53;;
13432;SDS011;6789;47.678;9.158;2023-03-23T19:57:52;3.85;;;2.65;;
13432;SDS011;6789;47.678;9.158;2023-03-23T20:02:44;5.85;;;3.42;;
13432;SDS011;6789;47.678;9.158;2023-03-23T20:07:35;6.75;;;3.53;;
13432;SDS011;6789;47.678;9.158;2023-03-23T20:12:31;5.97;;;3.33;;
13432;SDS011;6789;47.678;9.158;2023-03-23T20:17:24;5.53;;;3.50;;
13432;SDS011;6789;47.678;9.158;2023-03-23T20:22:16;4.38;;;2.95;;
13432;SDS011;6789;47.678;9.158;2023-03-23T20:27:07;6.43;;;3.42;;
13432;SDS011;6789;47.678;9.158;2023-03-23T20:31:59;4.67;;;3.00;;
13432;SDS011;6789;47.678;9.158;2023-03-23T20:36:51;3.80;;;3.00;;
13432;SDS011;6789;47.678;9.158;2023-03-23T20:41:44;4.82;;;3.10;;
13432;SDS011;6789;47.678;9.158;2023-03-23T20:46:38;10.57;;;3.57;;
13432;SDS011;6789;47.678;9.158;2023-03-23T20:51:30;4.47;;;3.00;;
13432;SDS011;6789;47.678;9.158;2023-03-23T20:56:23;7.20;;;4.40;;
13432;SDS011;6789;47.678;9.158;2023-03-23T21:01:15;3.60;;;3.10;;
13432;SDS011;6789;47.678;9.158;2023-03-23T21:06:07;5.50;;;3.47;;
13432;SDS011;6789;47.678;9.158;2023-03-23T21:11:00;4.28;;;3.28;;
13432;SDS011;6789;47.678;9.158;2023-03-23T21:15:54;5.25;;;3.25;;
13432;SDS011;6789;47.678;9.158;2023-03-23T21:20:46;6.10;;;4.20;;
13432;SDS011;6789;47.678;9.158;2023-03-23T21:25:41;8.87;;;3.70;;
13432;SDS011;6789;47.678;9.158;2023-03-23T21:30:34;5.67;;;3.83;;
13432;SDS011;6789;47.678;9.158;2023-03-23T21:35:40;6.03;;;3.60;;
13432;SDS011;6789;47.678;9.158;2023-03-23T21:40:32;6.67;;;3.90;;
13432;SDS011;6789;47.678;9.158;2023-03-23T21:45:23;5.83;;;4.03;;
13432;SDS011;6789;47.678;9.158;2023-03-23T21:50:16;4.83;;;3.83;;
13432;SDS011;6789;47.678;9.158;2023-03-23T21:55:11;5.00;;;4.00;;
13432;SDS011;6789;47.678;9.158;2023-03-23T22:00:04;5.03;;;4.03;;
13432;SDS011;6789;47.678;9.158;2023-03-23T22:05:01;6.33;;;4.47;;
13432;SDS011;6789;47.678;9.158;2023-03-23T22:09:53;6.10;;;4.70;;
13432;SDS011;6789;47.678;9.158;2023-03-23T22:14:45;6.63;;;4.30;;
13432;SDS011;6789;47.678;9.158;2023-03-23T22:19:37;6.13;;;4.37;;
13432;SDS011;6789;47.678;9.158;2023-03-23T22:24:29;7.13;;;4.50;;
13432;SDS011;6789;47.678;9.158;2023-03-23T22:29:22;6.67;;;4.37;;
13432;SDS011;6789;47.678;9.158;2023-03-23T22:34:14;6.80;;;4.60;;
13432;SDS011;6789;47.678;9.158;2023-03-23T22:39:07;6.07;;;4.03;;
13432;SDS011;6789;47.678;9.158;2023-03-23T22:43:59;7.03;;;4.70;;
13432;SDS011;6789;47.678;9.158;2023-03-23T22:48:52;6.57;;;5.17;;
13432;SDS011;6789;47.678;9.158;2023-03-23T22:53:44;9.23;;;6.47;;
13432;SDS011;6789;47.678;9.158;2023-03-23T22:58:36;8.57;;;5.60;;
13432;SDS011;6789;47.678;9.158;2023-03-23T23:03:29;8.83;;;5.03;;
13432;SDS011;6789;47.678;9.158;2023-03-23T23:08:24;8.30;;;5.43;;
13432;SDS011;6789;47.678;9.158;2023-03-23T23:13:19;7.00;;;4.73;;
13432;SDS011;6789;47.678;9.158;2023-03-23T23:18:11;7.33;;;5.10;;
13432;SDS011;6789;47.678;9.158;2023-03-23T23:23:04;8.70;;;5.20;;
13432;SDS011;6789;47.678;9.158;2023-03-23T23:27:56;7.27;;;5.13;;
13432;SDS011;6789;47.678;9.158;2023-03-23T23:32:51;7.17;;;5.07;;
13432;SDS011;6789;47.678;9.158;2023-03-23T23:37:46;8.00;;;5.23;;
13432;SDS011;6789;47.678;9.158;2023-03-23T23:42:53;8.50;;;5.43;;
13432;SDS011;6789;47.678;9.158;2023-03-23T23:47:45;6.63;;;5.23;;
13432;SDS011;6789;47.678;9.158;2023-03-23T23:52:48;7.97;;;5.77;;
13432;SDS011;6789;47.678;9.158;2023-03-23T23:57:56;9.33;;;5.80;;
